Time;durP1;ratioP1;P1;durP2;ratioP2;P2;SDS_P1;SDS_P2;PMS_P1;PMS_P2;Temp;Humidity;BMP_temperature;BMP_pressure;BME280_temperature;BME280_humidity;BME280_pressure;Samples;Min_cycle;Max_cycle;Signal;HPM_P1;HPM_P2
2020/12/07 00:00:47;;;;;;;48.72;12.13;;;;;;;2.71;84.22;94422.38;5112885;28;20060;-71
2020/12/07 00:03:13;;;;;;;58.17;12.13;;;;;;;2.75;84.02;94417.94;5111840;28;20685;-71
2020/12/07 00:05:39;;;;;;;39.22;10.38;;;;;;;2.72;83.96;94421.28;5113070;27;20130;-73
2020/12/07 00:08:05;;;;;;;56.97;12.32;;;;;;;2.76;83.90;94424.91;5111825;27;20048;-72
2020/12/07 00:10:31;;;;;;;52.97;11.02;;;;;;;2.72;83.79;94423.97;5112850;28;20046;-71
2020/12/07 00:12:57;;;;;;;41.85;10.25;;;;;;;2.78;83.69;94425.38;5112736;28;20044;-71
2020/12/07 00:15:24;;;;;;;42.97;9.75;;;;;;;2.77;83.38;94421.13;5112252;28;20100;-71
2020/12/07 00:17:53;;;;;;;41.60;8.98;;;;;;;2.71;83.26;94422.38;5112731;28;20399;-71
2020/12/07 00:20:19;;;;;;;43.45;9.55;;;;;;;2.65;83.28;94420.16;5110902;28;20062;-71
2020/12/07 00:22:44;;;;;;;37.42;8.43;;;;;;;2.71;82.97;94417.00;5112522;28;20043;-71
2020/12/07 00:25:10;;;;;;;40.65;8.80;;;;;;;2.80;82.83;94431.22;5111744;27;20556;-71
2020/12/07 00:27:36;;;;;;;38.42;8.32;;;;;;;2.79;82.68;94445.78;5112283;28;20499;-71
2020/12/07 00:30:04;;;;;;;33.03;8.35;;;;;;;2.83;82.43;94454.81;5111758;28;20093;-72
2020/12/07 00:32:32;;;;;;;34.67;8.38;;;;;;;2.92;82.46;94448.63;5112334;27;20545;-71
2020/12/07 00:34:58;;;;;;;28.40;7.85;;;;;;;2.92;81.94;94456.69;5112059;28;20050;-72
2020/12/07 00:37:24;;;;;;;30.50;7.88;;;;;;;2.68;81.98;94460.63;5111674;28;20056;-71
2020/12/07 00:39:51;;;;;;;37.00;8.10;;;;;;;2.67;82.22;94453.69;5112095;27;20097;-71
2020/12/07 00:42:17;;;;;;;44.13;9.10;;;;;;;2.68;82.17;94436.44;5111571;28;20048;-71
2020/12/07 00:44:43;;;;;;;32.95;7.70;;;;;;;2.64;82.11;94438.19;5111927;28;20651;-71
2020/12/07 00:47:11;;;;;;;37.47;8.20;;;;;;;2.61;82.25;94444.19;5111543;27;20490;-72
2020/12/07 00:49:38;;;;;;;40.92;8.13;;;;;;;2.56;82.40;94436.28;5111975;28;20050;-72
2020/12/07 00:52:05;;;;;;;37.95;7.78;;;;;;;2.59;82.34;94423.00;5111303;27;20044;-71
2020/12/07 00:54:31;;;;;;;38.75;7.07;;;;;;;2.46;82.59;94431.22;5112057;27;20047;-71
2020/12/07 00:56:59;;;;;;;47.67;8.43;;;;;;;2.27;83.14;94429.56;5111783;28;20044;-71
2020/12/07 00:59:26;;;;;;;36.75;8.90;;;;;;;2.19;83.58;94432.22;5111249;28;20466;-71
2020/12/07 01:01:53;;;;;;;50.35;9.40;;;;;;;2.08;84.20;94426.34;5111196;28;20611;-71
2020/12/07 01:04:20;;;;;;;47.33;9.43;;;;;;;2.19;83.89;94438.38;5111286;28;20047;-71
2020/12/07 01:06:47;;;;;;;37.22;8.05;;;;;;;2.15;83.59;94453.56;5111894;28;20043;-71
2020/12/07 01:09:13;;;;;;;44.83;9.98;;;;;;;2.02;84.07;94449.06;5110804;28;20131;-71
2020/12/07 01:11:41;;;;;;;43.40;9.90;;;;;;;1.83;84.97;94436.69;5111422;28;20048;-71
2020/12/07 01:14:08;;;;;;;44.13;10.00;;;;;;;1.96;84.77;94429.63;5110466;28;20498;-71
2020/12/07 01:16:35;;;;;;;35.47;9.63;;;;;;;2.01;84.44;94442.13;5111296;28;20046;-71
2020/12/07 01:19:02;;;;;;;47.00;9.55;;;;;;;2.09;84.49;94460.97;5110847;28;20053;-71
2020/12/07 01:21:28;;;;;;;40.22;10.15;;;;;;;2.08;84.21;94474.66;5111149;28;20040;-72
2020/12/07 01:23:54;;;;;;;40.33;10.07;;;;;;;1.99;84.23;94482.72;5111269;28;20093;-71
2020/12/07 01:26:20;;;;;;;43.38;9.65;;;;;;;1.91;84.55;94480.75;5110720;27;20050;-71
2020/12/07 01:28:47;;;;;;;40.13;10.40;;;;;;;1.94;84.56;94484.75;5111305;28;20070;-71
2020/12/07 01:31:13;;;;;;;40.85;9.90;;;;;;;1.94;84.67;94474.78;5110717;28;20126;-71
2020/12/07 01:33:39;;;;;;;50.30;10.50;;;;;;;1.82;84.87;94478.03;5110791;28;20040;-71
2020/12/07 01:36:05;;;;;;;42.25;9.98;;;;;;;1.95;84.76;94471.00;5110468;28;20067;-71
2020/12/07 01:38:31;;;;;;;42.83;11.02;;;;;;;1.88;84.96;94480.56;5111020;28;20048;-71
2020/12/07 01:40:58;;;;;;;45.00;11.07;;;;;;;1.87;84.86;94474.41;5111011;28;20096;-71
2020/12/07 01:43:24;;;;;;;44.90;10.88;;;;;;;1.81;84.86;94464.94;5110492;27;20051;-71
2020/12/07 01:45:50;;;;;;;42.50;11.50;;;;;;;1.86;85.20;94461.31;5110881;28;20081;-71
2020/12/07 01:48:16;;;;;;;49.08;11.98;;;;;;;1.79;85.21;94467.94;5110401;28;20146;-71
2020/12/07 01:50:42;;;;;;;39.60;10.95;;;;;;;1.87;85.13;94462.91;5110806;28;20134;-71
2020/12/07 01:53:09;;;;;;;42.72;10.73;;;;;;;1.93;85.14;94467.03;5110404;28;20044;-71
2020/12/07 01:55:35;;;;;;;45.17;11.25;;;;;;;1.99;84.82;94469.28;5110654;28;20131;-71
2020/12/07 01:58:02;;;;;;;46.78;11.18;;;;;;;1.93;84.48;94467.84;5110384;28;20051;-71
2020/12/07 02:00:28;;;;;;;45.42;11.43;;;;;;;1.90;84.67;94478.41;5110577;28;20047;-71
2020/12/07 02:02:55;;;;;;;45.13;11.32;;;;;;;2.01;84.70;94496.59;5110481;28;20074;-71
2020/12/07 02:05:21;;;;;;;44.80;10.38;;;;;;;2.09;84.51;94505.81;5109637;28;20055;-71
2020/12/07 02:07:47;;;;;;;43.33;10.27;;;;;;;2.13;84.27;94509.44;5110665;28;20043;-71
2020/12/07 02:10:13;;;;;;;45.08;11.15;;;;;;;2.23;83.93;94519.91;5110084;28;20096;-71
2020/12/07 02:12:39;;;;;;;51.13;11.75;;;;;;;2.34;83.74;94521.22;5110468;28;20066;-71
2020/12/07 02:15:06;;;;;;;37.53;10.60;;;;;;;2.30;83.26;94528.34;5109819;28;20741;-71
2020/12/07 02:17:31;;;;;;;45.63;10.55;;;;;;;2.12;83.74;94521.28;5110559;28;20423;-71
2020/12/07 02:19:58;;;;;;;60.03;11.75;;;;;;;2.21;83.53;94514.06;5110427;28;20073;-71
2020/12/07 02:22:24;;;;;;;41.13;10.18;;;;;;;2.30;83.46;94520.28;5109729;28;20051;-71
2020/12/07 02:24:50;;;;;;;45.95;11.70;;;;;;;2.26;82.94;94527.38;5110387;28;20047;-71
2020/12/07 02:27:16;;;;;;;49.65;11.85;;;;;;;1.96;83.98;94531.63;5109754;28;20124;-71
2020/12/07 02:29:42;;;;;;;40.33;11.32;;;;;;;1.89;84.43;94554.66;5110083;28;20067;-71
2020/12/07 02:32:13;;;;;;;39.88;10.45;;;;;;;1.83;85.23;94554.00;5109597;28;20108;-71
2020/12/07 02:34:40;;;;;;;49.80;12.93;;;;;;;1.71;85.37;94564.47;5109883;28;20059;-71
2020/12/07 02:37:07;;;;;;;45.88;11.95;;;;;;;1.71;85.53;94578.69;5109542;28;20047;-71
2020/12/07 02:39:33;;;;;;;40.13;10.20;;;;;;;1.78;85.48;94568.31;5110202;28;20043;-71
2020/12/07 02:42:01;;;;;;;42.60;11.10;;;;;;;1.92;85.32;94545.97;5109873;28;20043;-71
2020/12/07 02:44:27;;;;;;;43.78;11.15;;;;;;;1.93;84.75;94550.22;5109635;28;20039;-71
2020/12/07 02:46:53;;;;;;;46.80;12.20;;;;;;;1.87;84.70;94554.16;5109901;28;20560;-71
2020/12/07 02:49:19;;;;;;;46.60;11.45;;;;;;;1.86;84.88;94560.63;5109639;28;20063;-71
2020/12/07 02:51:45;;;;;;;37.05;11.15;;;;;;;1.86;85.01;94574.03;5110138;28;20043;-71
2020/12/07 02:54:12;;;;;;;40.30;11.30;;;;;;;1.89;84.97;94578.81;5107181;28;20072;-71
2020/12/07 02:56:38;;;;;;;45.22;11.18;;;;;;;1.90;85.02;94586.53;5109775;28;20048;-71
2020/12/07 02:59:04;;;;;;;39.80;10.48;;;;;;;2.00;84.62;94588.19;5109503;28;20104;-71
2020/12/07 03:01:30;;;;;;;45.00;11.98;;;;;;;2.07;84.36;94588.53;5109715;28;20109;-71
2020/12/07 03:03:56;;;;;;;45.33;11.43;;;;;;;2.09;84.20;94594.41;5109625;28;20055;-71
2020/12/07 03:06:22;;;;;;;34.88;11.02;;;;;;;2.05;84.20;94593.44;5109372;28;20100;-71
2020/12/07 03:08:48;;;;;;;42.05;11.38;;;;;;;2.07;84.01;94599.28;5109914;28;20093;-71
2020/12/07 03:11:14;;;;;;;43.47;11.32;;;;;;;2.04;84.05;94602.59;5109223;28;20051;-71
2020/12/07 03:13:40;;;;;;;49.55;11.95;;;;;;;1.97;84.43;94607.59;5109981;28;20055;-71
2020/12/07 03:16:06;;;;;;;41.15;10.75;;;;;;;2.02;84.35;94602.09;5110156;27;20179;-71
2020/12/07 03:18:32;;;;;;;45.95;11.80;;;;;;;2.16;84.11;94610.88;5113527;27;20047;-71
2020/12/07 03:20:58;;;;;;;48.55;11.45;;;;;;;2.12;83.90;94601.84;5113747;28;20126;-71
2020/12/07 03:23:24;;;;;;;58.55;12.30;;;;;;;2.06;83.95;94617.28;5112770;27;20082;-71
2020/12/07 03:25:50;;;;;;;39.40;10.73;;;;;;;2.13;83.87;94624.91;5113737;27;20067;-71
2020/12/07 03:28:17;;;;;;;41.67;11.25;;;;;;;2.25;83.72;94619.78;5113026;28;20547;-71
2020/12/07 03:30:43;;;;;;;35.10;10.80;;;;;;;2.32;83.25;94635.44;5113679;28;20055;-71
2020/12/07 03:33:09;;;;;;;43.63;11.05;;;;;;;2.31;82.93;94631.97;5113041;28;20051;-71
2020/12/07 03:35:35;;;;;;;42.78;10.15;;;;;;;2.31;83.08;94637.34;5113450;28;20124;-71
2020/12/07 03:38:01;;;;;;;32.75;10.65;;;;;;;2.37;82.87;94646.06;5113266;28;20047;-71
2020/12/07 03:40:27;;;;;;;41.10;10.40;;;;;;;2.44;82.57;94648.31;5113436;27;20047;-71
2020/12/07 03:42:53;;;;;;;42.67;10.50;;;;;;;2.46;82.47;94651.50;5113246;28;20040;-71
2020/12/07 03:45:20;;;;;;;36.47;10.60;;;;;;;2.27;82.48;94660.53;5112448;27;20097;-71
2020/12/07 03:47:46;;;;;;;41.88;10.48;;;;;;;2.34;82.81;94655.50;5113082;27;20040;-71
2020/12/07 03:50:12;;;;;;;45.90;11.20;;;;;;;2.45;82.62;94661.41;5112500;28;20116;-71
2020/12/07 03:52:37;;;;;;;41.13;10.63;;;;;;;2.53;82.30;94658.00;5113401;28;20051;-71
2020/12/07 03:55:03;;;;;;;43.05;10.55;;;;;;;2.41;82.22;94657.00;5112326;27;20051;-71
2020/12/07 03:57:29;;;;;;;43.75;10.20;;;;;;;2.35;82.46;94665.19;5113124;27;20055;-71
2020/12/07 03:59:55;;;;;;;40.25;10.70;;;;;;;2.24;83.01;94669.19;5112909;28;20444;-71
2020/12/07 04:02:22;;;;;;;38.97;9.80;;;;;;;2.24;82.96;94663.81;5112168;27;20051;-71
2020/12/07 04:04:51;;;;;;;34.53;9.65;;;;;;;2.21;83.25;94677.88;5112983;28;20515;-71
2020/12/07 04:07:17;;;;;;;42.45;10.70;;;;;;;2.09;83.69;94675.75;5112381;28;20097;-71
2020/12/07 04:09:43;;;;;;;36.58;9.23;;;;;;;2.11;83.72;94686.19;5112818;28;20134;-71
2020/12/07 04:12:09;;;;;;;38.85;10.88;;;;;;;1.94;84.22;94678.00;5112344;28;20494;-71
2020/12/07 04:14:35;;;;;;;44.45;10.55;;;;;;;1.94;84.16;94672.63;5112908;28;20044;-71
2020/12/07 04:17:01;;;;;;;34.30;9.52;;;;;;;2.01;84.04;94665.72;5111728;28;20098;-71
2020/12/07 04:19:28;;;;;;;30.63;9.30;;;;;;;1.89;84.32;94665.50;5112733;28;20054;-71
2020/12/07 04:21:54;;;;;;;46.58;10.75;;;;;;;1.84;84.31;94673.66;5112459;27;20047;-71
2020/12/07 04:24:20;;;;;;;36.60;9.85;;;;;;;1.74;84.39;94680.03;5111297;27;20040;-72
2020/12/07 04:26:46;;;;;;;40.75;10.23;;;;;;;1.69;84.79;94687.41;5112286;28;20068;-72
2020/12/07 04:29:12;;;;;;;45.25;10.65;;;;;;;1.75;84.79;94697.72;5112228;28;20044;-71
2020/12/07 04:31:37;;;;;;;40.10;10.75;;;;;;;1.81;84.72;94696.50;5112713;28;20100;-71
2020/12/07 04:34:03;;;;;;;39.20;10.25;;;;;;;1.73;84.58;94699.94;5111968;28;20180;-71
2020/12/07 04:36:30;;;;;;;45.10;10.20;;;;;;;1.83;84.61;94693.56;5112340;28;20122;-71
2020/12/07 04:38:56;;;;;;;34.70;10.43;;;;;;;1.85;84.37;94701.28;5112350;28;20055;-71
2020/12/07 04:41:22;;;;;;;32.60;10.38;;;;;;;1.82;84.39;94681.19;5112034;28;20073;-71
2020/12/07 04:43:49;;;;;;;41.13;10.35;;;;;;;1.81;84.28;94685.78;5112025;28;20048;-71
2020/12/07 04:46:15;;;;;;;41.53;10.55;;;;;;;1.63;84.74;94689.41;5111828;27;20498;-71
2020/12/07 04:48:42;;;;;;;36.15;10.18;;;;;;;1.53;85.13;94690.44;5112319;27;20051;-71
2020/12/07 04:51:09;;;;;;;47.08;11.10;;;;;;;1.54;85.30;94691.22;5111697;28;20189;-71
2020/12/07 04:53:37;;;;;;;46.42;10.52;;;;;;;1.62;85.00;94685.16;5111660;28;20048;-71
2020/12/07 04:56:03;;;;;;;42.88;10.73;;;;;;;1.71;84.96;94690.59;5111569;28;20047;-71
2020/12/07 04:58:29;;;;;;;42.78;10.50;;;;;;;1.75;84.58;94696.94;5111993;28;20050;-71
2020/12/07 05:00:55;;;;;;;39.20;10.30;;;;;;;1.81;84.54;94696.50;5111610;28;20130;-71
2020/12/07 05:03:21;;;;;;;38.88;9.55;;;;;;;1.85;84.26;94696.72;5111330;28;20051;-71
2020/12/07 05:05:50;;;;;;;35.63;9.63;;;;;;;1.84;84.30;94705.88;5111699;27;20126;-71
2020/12/07 05:08:16;;;;;;;43.90;10.10;;;;;;;1.84;83.89;94705.88;5111204;28;20414;-71
2020/12/07 05:10:45;;;;;;;40.05;9.65;;;;;;;1.83;83.78;94715.03;5111853;28;20067;-71
2020/12/07 05:13:19;;;;;;;48.42;10.85;;;;;;;1.76;83.72;94710.03;5110866;28;20061;-71
2020/12/07 05:15:45;;;;;;;36.90;9.60;;;;;;;1.78;83.83;94718.59;5111496;28;20047;-71
2020/12/07 05:18:11;;;;;;;40.35;9.52;;;;;;;1.86;83.94;94716.28;5111108;28;20104;-73
2020/12/07 05:20:37;;;;;;;38.95;9.02;;;;;;;1.91;83.70;94727.72;5111338;28;20039;-71
2020/12/07 05:23:03;;;;;;;37.28;9.43;;;;;;;1.97;83.56;94736.44;5111040;27;20626;-71
2020/12/07 05:25:30;;;;;;;44.25;9.65;;;;;;;2.00;83.64;94730.47;5110894;28;20048;-70
2020/12/07 05:27:58;;;;;;;39.55;10.10;;;;;;;2.00;83.81;94735.84;5110974;28;20055;-71
2020/12/07 05:30:27;;;;;;;44.58;10.35;;;;;;;2.05;83.55;94743.78;5110851;28;20043;-71
2020/12/07 05:32:53;;;;;;;38.70;8.13;;;;;;;2.05;83.49;94747.25;5111044;28;20047;-71
2020/12/07 05:35:19;;;;;;;40.47;8.65;;;;;;;1.97;83.29;94747.19;5110610;28;20047;-71
2020/12/07 05:37:45;;;;;;;34.83;8.32;;;;;;;1.86;83.38;94751.19;5111096;28;20608;-73
2020/12/07 05:40:13;;;;;;;43.83;8.80;;;;;;;1.94;83.34;94753.16;5109827;28;20130;-71
2020/12/07 05:42:39;;;;;;;42.20;8.65;;;;;;;1.89;83.31;94756.75;5110767;27;20521;-71
2020/12/07 05:45:08;;;;;;;39.97;8.65;;;;;;;1.92;83.08;94758.03;5110446;28;20044;-71
2020/12/07 05:47:37;;;;;;;44.85;8.93;;;;;;;1.86;83.29;94767.28;5110909;28;20490;-71
2020/12/07 05:50:04;;;;;;;48.10;9.35;;;;;;;1.89;83.40;94774.75;5110338;28;20130;-71
2020/12/07 05:52:35;;;;;;;39.20;7.47;;;;;;;1.86;83.00;94781.50;5110854;28;20044;-71
2020/12/07 05:55:02;;;;;;;39.97;8.18;;;;;;;1.80;83.32;94778.13;5109932;28;20052;-71
2020/12/07 05:57:31;;;;;;;38.35;7.82;;;;;;;1.81;82.81;94787.75;5110236;28;20050;-71
2020/12/07 06:00:04;;;;;;;31.60;7.13;;;;;;;1.59;82.51;94785.00;5110881;28;20055;-71
2020/12/07 06:02:31;;;;;;;32.38;6.82;;;;;;;1.41;83.29;94775.16;5089942;28;20043;-71
2020/12/07 06:04:58;;;;;;;39.40;7.03;;;;;;;1.45;83.04;94786.91;5090157;28;20048;-71
2020/12/07 06:07:28;;;;;;;35.42;6.50;;;;;;;1.40;82.37;94787.78;5089806;28;20051;-71
2020/12/07 06:09:56;;;;;;;32.90;6.35;;;;;;;1.27;83.04;94780.56;5090334;28;20463;-71
2020/12/07 06:12:28;;;;;;;41.55;6.75;;;;;;;1.44;82.81;94777.28;5089587;28;20044;-71
2020/12/07 06:14:54;;;;;;;32.20;6.90;;;;;;;1.44;82.67;94779.94;5090081;28;20048;-70
2020/12/07 06:17:24;;;;;;;24.02;5.57;;;;;;;1.51;82.44;94777.66;5089236;28;20654;-71
2020/12/07 06:19:53;;;;;;;40.97;7.13;;;;;;;1.50;82.24;94776.06;5089741;28;20086;-71
2020/12/07 06:22:21;;;;;;;33.63;5.75;;;;;;;1.63;82.06;94777.16;5089632;28;20059;-71
2020/12/07 06:24:49;;;;;;;34.35;6.72;;;;;;;1.69;82.00;94784.81;5105277;27;20100;-71
2020/12/07 06:27:16;;;;;;;24.70;6.22;;;;;;;1.73;81.72;94796.53;5109967;28;20043;-71
2020/12/07 06:30:00;;;;;;;32.97;6.68;;;;;;;1.66;81.78;94790.75;5110131;28;20043;-72
2020/12/07 06:32:50;;;;;;;29.55;6.55;;;;;;;1.80;81.77;94799.59;5110105;28;20044;-78
2020/12/07 06:35:17;;;;;;;36.28;7.18;;;;;;;1.91;81.54;94799.38;5110105;28;20043;-72
2020/12/07 06:37:44;;;;;;;30.00;6.53;;;;;;;1.97;81.33;94803.56;5110711;28;20043;-73
2020/12/07 06:40:11;;;;;;;39.83;7.28;;;;;;;2.08;81.08;94802.22;5109869;28;20048;-72
2020/12/07 06:42:42;;;;;;;37.47;6.53;;;;;;;2.06;80.61;94809.81;5109902;28;20050;-73
2020/12/07 06:45:09;;;;;;;55.55;7.95;;;;;;;2.14;80.52;94811.78;5107841;28;20051;-73
2020/12/07 06:47:40;;;;;;;35.30;6.55;;;;;;;2.13;80.04;94820.91;5110204;28;20047;-73
2020/12/07 06:50:12;;;;;;;53.42;7.85;;;;;;;2.21;79.86;94822.91;5110230;28;20043;-72
2020/12/07 06:52:42;;;;;;;55.45;8.25;;;;;;;2.28;79.76;94828.66;5114200;28;20055;-73
2020/12/07 06:55:10;;;;;;;43.20;7.43;;;;;;;2.37;79.89;94830.63;5114106;27;20067;-73
2020/12/07 06:57:42;;;;;;;33.33;6.95;;;;;;;2.42;79.80;94838.56;5114401;28;20134;-72
2020/12/07 07:00:11;;;;;;;41.45;7.70;;;;;;;2.46;80.00;94850.31;5113957;28;20039;-72
2020/12/07 07:02:42;;;;;;;34.00;6.50;;;;;;;2.49;79.85;94849.69;5114371;28;20457;-72
2020/12/07 07:05:10;;;;;;;40.10;7.30;;;;;;;2.51;79.78;94853.66;5113818;27;20051;-72
2020/12/07 07:07:36;;;;;;;32.08;6.80;;;;;;;2.56;79.49;94852.75;5114186;27;20039;-72
2020/12/07 07:10:05;;;;;;;45.00;7.90;;;;;;;2.59;79.35;94857.50;5113556;28;20048;-72
2020/12/07 07:12:30;;;;;;;37.47;6.53;;;;;;;2.59;79.09;94854.81;5114092;28;20047;-72
2020/12/07 07:14:57;;;;;;;33.80;6.38;;;;;;;2.61;79.08;94868.78;5114167;28;20435;-72
2020/12/07 07:17:25;;;;;;;38.53;7.07;;;;;;;2.64;79.07;94868.16;5113493;27;20572;-72
2020/12/07 07:19:51;;;;;;;32.00;6.60;;;;;;;2.68;79.19;94874.50;5113916;28;20589;-72
2020/12/07 07:22:17;;;;;;;42.58;7.38;;;;;;;2.72;79.19;94883.56;5113211;28;20067;-72
2020/12/07 07:24:50;;;;;;;35.03;7.25;;;;;;;2.79;79.06;94881.25;5114247;27;20039;-73
2020/12/07 07:30:00;;;;;;;40.10;7.40;;;;;;;2.85;78.83;94890.78;5113823;28;20054;-72
2020/12/07 07:32:26;;;;;;;31.17;6.50;;;;;;;2.87;78.75;94891.28;5113863;27;20043;-72
2020/12/07 07:34:52;;;;;;;35.45;6.78;;;;;;;2.93;78.69;94883.09;5113504;28;20040;-72
2020/12/07 07:37:19;;;;;;;38.50;6.82;;;;;;;2.95;78.69;94870.91;5113099;27;20476;-72
2020/12/07 07:39:46;;;;;;;33.55;7.43;;;;;;;3.00;78.62;94864.63;5113512;28;20556;-72
2020/12/07 07:42:14;;;;;;;37.55;8.95;;;;;;;3.06;78.93;94858.03;5113077;28;20051;-73
2020/12/07 07:44:45;;;;;;;39.53;8.05;;;;;;;3.10;78.39;94861.69;5113561;27;20047;-72
2020/12/07 07:47:15;;;;;;;39.65;7.72;;;;;;;3.11;78.46;94857.91;5113002;28;20047;-72
2020/12/07 07:50:11;;;;;;;36.90;7.90;;;;;;;3.11;78.42;94856.00;5113552;27;20068;-74
2020/12/07 08:15:27;;;;;;;36.40;7.38;;;;;;;3.72;76.96;94885.94;5112598;27;20050;-72
2020/12/07 08:17:56;;;;;;;32.83;6.55;;;;;;;3.86;77.01;94881.25;5112895;28;20131;-72
2020/12/07 08:20:24;;;;;;;39.13;6.75;;;;;;;3.97;76.77;94883.63;5112304;28;20044;-72
2020/12/07 08:22:59;;;;;;;32.45;6.28;;;;;;;4.00;76.04;94880.34;5112755;28;20043;-72
2020/12/07 08:25:44;;;;;;;35.85;6.57;;;;;;;4.01;75.26;94881.91;5110907;27;20143;-72
2020/12/07 08:28:22;;;;;;;35.50;7.13;;;;;;;4.02;74.87;94878.09;5112235;28;20051;-72
2020/12/07 08:30:58;;;;;;;26.75;5.82;;;;;;;4.11;74.68;94887.00;5112821;28;20043;-72
2020/12/07 08:33:25;;;;;;;27.75;5.95;;;;;;;4.10;74.44;94896.22;5112081;27;20055;-74
2020/12/07 08:35:51;;;;;;;31.63;5.90;;;;;;;4.03;73.75;94887.81;5112427;28;20448;-72
2020/12/07 08:38:27;;;;;;;38.17;6.63;;;;;;;3.99;73.93;94886.84;5111901;28;20093;-72
2020/12/07 08:40:54;;;;;;;22.80;5.53;;;;;;;3.99;73.66;94889.53;5112665;27;20043;-72
2020/12/07 08:43:20;;;;;;;36.63;6.20;;;;;;;3.99;74.06;94884.13;5111990;28;20509;-72
2020/12/07 08:45:47;;;;;;;31.80;5.30;;;;;;;3.79;73.27;94885.47;5112252;27;20055;-72
2020/12/07 08:48:13;;;;;;;35.65;5.60;;;;;;;3.72;73.27;94885.94;5111834;28;20054;-72
2020/12/07 08:50:40;;;;;;;32.28;6.18;;;;;;;3.70;73.54;94888.13;5112156;28;20047;-72
2020/12/07 08:53:06;;;;;;;39.35;5.72;;;;;;;3.71;74.25;94895.13;5111259;28;20044;-72
2020/12/07 08:55:32;;;;;;;29.17;5.10;;;;;;;3.71;74.78;94905.88;5111704;27;20162;-72
2020/12/07 08:57:58;;;;;;;30.45;5.82;;;;;;;3.69;74.06;94904.59;5111999;28;20035;-72
2020/12/07 09:00:24;;;;;;;34.88;5.20;;;;;;;3.67;74.40;94904.91;5111487;28;20044;-72
2020/12/07 09:02:50;;;;;;;34.67;5.63;;;;;;;3.75;74.97;94904.16;5111990;28;20088;-72
2020/12/07 09:05:16;;;;;;;39.22;6.38;;;;;;;3.79;74.87;94901.63;5111341;28;20090;-72
2020/12/07 09:07:43;;;;;;;29.27;4.88;;;;;;;3.79;74.81;94901.63;5112098;28;20506;-72
2020/12/07 09:10:09;;;;;;;30.90;5.13;;;;;;;3.84;74.80;94915.75;5111302;28;20069;-73
2020/12/07 09:12:35;;;;;;;29.13;5.32;;;;;;;3.79;74.41;94915.88;5111815;28;20072;-72
2020/12/07 09:15:01;;;;;;;33.88;5.43;;;;;;;3.84;75.14;94910.38;5110153;28;20055;-72
2020/12/07 09:17:27;;;;;;;28.88;4.65;;;;;;;3.93;75.43;94919.28;5112026;28;20047;-72
2020/12/07 09:19:53;;;;;;;26.48;4.20;;;;;;;3.99;74.64;94927.22;5111481;28;20043;-72
2020/12/07 09:22:19;;;;;;;28.25;4.10;;;;;;;3.81;73.53;94921.78;5111116;28;20130;-72
2020/12/07 09:24:46;;;;;;;28.65;3.97;;;;;;;3.82;73.51;94923.34;5110920;28;20054;-72
2020/12/07 09:27:12;;;;;;;34.15;4.55;;;;;;;3.88;73.95;94930.19;5111163;28;20396;-73
2020/12/07 09:29:38;;;;;;;29.05;4.30;;;;;;;3.93;74.03;94945.44;5111296;27;20097;-72
2020/12/07 09:32:04;;;;;;;35.20;4.40;;;;;;;4.00;74.06;94944.97;5111051;28;20444;-72
2020/12/07 09:34:30;;;;;;;35.22;4.38;;;;;;;4.19;74.56;94940.94;5111151;27;20052;-72
2020/12/07 09:36:56;;;;;;;23.52;3.10;;;;;;;4.48;73.98;94938.78;5111258;28;20073;-72
2020/12/07 09:39:22;;;;;;;24.50;3.25;;;;;;;4.65;72.82;94933.47;5110736;28;20039;-72
2020/12/07 09:41:48;;;;;;;27.77;4.07;;;;;;;4.69;71.98;94939.78;5111044;28;20040;-72
2020/12/07 09:44:14;;;;;;;22.80;3.33;;;;;;;4.65;71.48;94933.47;5110773;27;20054;-73
2020/12/07 09:46:40;;;;;;;26.73;3.47;;;;;;;4.63;71.15;94930.25;5111147;28;20044;-72
2020/12/07 09:49:06;;;;;;;20.30;3.20;;;;;;;4.73;71.11;94927.25;5110639;28;20088;-72
2020/12/07 09:51:32;;;;;;;28.20;3.40;;;;;;;4.68;70.87;94919.31;5111055;28;20048;-72
2020/12/07 09:53:58;;;;;;;28.40;3.50;;;;;;;4.64;71.14;94916.47;5110349;28;20047;-72
2020/12/07 09:56:29;;;;;;;21.40;3.42;;;;;;;4.59;71.45;94930.09;5110414;27;20048;-72
2020/12/07 09:58:57;;;;;;;24.40;3.05;;;;;;;4.57;71.31;94939.63;5110858;28;20506;-72
2020/12/07 10:01:23;;;;;;;23.27;3.28;;;;;;;4.80;71.68;94930.28;5110586;28;20058;-72
2020/12/07 10:03:49;;;;;;;24.17;3.40;;;;;;;4.95;69.92;94929.81;5110813;28;20084;-72
2020/12/07 10:06:14;;;;;;;22.30;2.88;;;;;;;5.26;69.47;94920.78;5110372;28;20051;-72
2020/12/07 10:08:40;;;;;;;33.50;3.45;;;;;;;5.49;69.36;94922.19;5110604;28;20052;-72
2020/12/07 10:11:07;;;;;;;19.08;2.83;;;;;;;5.70;68.38;94925.00;5110380;28;20100;-72
2020/12/07 10:13:33;;;;;;;29.13;3.55;;;;;;;6.07;69.12;94911.09;5110606;28;20404;-72
2020/12/07 10:15:59;;;;;;;20.15;2.92;;;;;;;6.47;67.77;94915.03;5110479;28;20531;-72
2020/12/07 10:18:25;;;;;;;16.58;2.50;;;;;;;6.79;64.77;94916.28;5110315;28;20036;-72
2020/12/07 10:20:51;;;;;;;19.88;2.55;;;;;;;6.77;62.33;94906.88;5110822;28;20063;-72
2020/12/07 10:23:17;;;;;;;36.83;3.67;;;;;;;6.52;62.75;94909.44;5109399;28;20046;-72
2020/12/07 10:25:48;;;;;;;27.98;3.35;;;;;;;6.56;64.67;94906.06;5110091;27;20130;-72
2020/12/07 10:28:14;;;;;;;26.55;2.85;;;;;;;6.79;62.31;94900.03;5110087;28;20051;-71
2020/12/07 10:30:40;;;;;;;28.33;3.03;;;;;;;7.00;63.99;94893.84;5110518;28;20088;-72
2020/12/07 10:33:07;;;;;;;23.83;2.72;;;;;;;6.87;61.68;94882.16;5109944;28;20071;-72
2020/12/07 10:35:33;;;;;;;25.40;2.58;;;;;;;6.68;62.70;94887.22;5110716;28;20047;-73
2020/12/07 10:38:00;;;;;;;26.15;2.55;;;;;;;6.46;62.12;94889.09;5110303;28;20044;-72
2020/12/07 10:40:26;;;;;;;34.47;2.83;;;;;;;6.30;62.65;94887.28;5093250;28;20071;-72
2020/12/07 10:42:52;;;;;;;24.77;2.20;;;;;;;6.14;63.80;94889.75;5110391;28;20040;-72
2020/12/07 10:45:17;;;;;;;23.42;2.58;;;;;;;6.07;64.37;94892.19;5109806;28;20516;-72
2020/12/07 10:47:43;;;;;;;23.08;2.60;;;;;;;6.15;64.57;94897.53;5110209;28;20048;-72
2020/12/07 10:50:10;;;;;;;28.70;2.75;;;;;;;6.15;63.58;94889.41;5109750;28;20444;-72
2020/12/07 10:52:36;;;;;;;26.08;2.70;;;;;;;5.93;63.32;94885.06;5110275;28;20044;-72
2020/12/07 10:55:03;;;;;;;32.00;2.78;;;;;;;5.88;63.69;94887.91;5110081;27;20503;-72
2020/12/07 10:57:29;;;;;;;35.40;3.17;;;;;;;6.03;64.72;94893.94;5110142;28;20043;-72
2020/12/07 10:59:55;;;;;;;26.08;2.33;;;;;;;6.22;64.22;94891.63;5109955;28;20048;-72
2020/12/07 11:02:21;;;;;;;38.65;3.00;;;;;;;6.27;62.73;94891.44;5109759;28;20048;-72
2020/12/07 11:04:47;;;;;;;29.48;2.45;;;;;;;6.42;62.40;94909.81;5110017;28;20538;-72
2020/12/07 11:07:16;;;;;;;28.83;2.63;;;;;;;6.45;61.27;94898.34;5109566;28;20325;-72
2020/12/07 11:09:42;;;;;;;31.85;2.45;;;;;;;6.14;60.87;94900.56;5110185;28;20101;-72
2020/12/07 11:12:12;;;;;;;29.90;2.60;;;;;;;6.17;61.46;94908.03;5109554;28;20048;-72
2020/12/07 11:14:38;;;;;;;28.67;2.42;;;;;;;6.43;61.40;94908.69;5110247;28;20047;-72
2020/12/07 11:17:05;;;;;;;33.45;2.55;;;;;;;6.61;61.76;94897.78;5109421;28;20040;-72
2020/12/07 11:19:31;;;;;;;29.40;2.40;;;;;;;6.77;60.50;94898.78;5110344;28;20080;-72
2020/12/07 11:21:57;;;;;;;24.23;2.22;;;;;;;6.88;59.87;94896.47;5109964;28;20075;-72
2020/12/07 11:24:24;;;;;;;31.23;2.85;;;;;;;6.87;59.05;94898.38;5110083;27;20043;-73
2020/12/07 11:26:50;;;;;;;30.70;2.22;;;;;;;6.93;60.15;94894.34;5110001;28;20047;-72
2020/12/07 11:29:16;;;;;;;26.33;2.38;;;;;;;6.77;59.38;94893.38;5109346;28;20499;-72
2020/12/07 11:31:46;;;;;;;27.42;2.20;;;;;;;6.83;61.32;94893.94;5110025;28;20394;-72
2020/12/07 11:34:12;;;;;;;30.48;2.38;;;;;;;6.92;60.15;94890.06;5109290;28;20052;-72
2020/12/07 11:36:38;;;;;;;28.92;2.13;;;;;;;6.99;58.53;94887.63;5109830;28;20050;-72
2020/12/07 11:39:19;;;;;;;29.25;2.28;;;;;;;6.94;60.10;94885.13;5113322;28;20040;-72
2020/12/07 11:41:57;;;;;;;23.63;1.88;;;;;;;6.89;57.44;94879.91;5113534;28;20043;-72
2020/12/07 11:44:23;;;;;;;28.30;2.00;;;;;;;6.86;58.26;94877.88;5113028;28;20043;-72
2020/12/07 11:46:54;;;;;;;30.15;2.70;;;;;;;6.86;58.95;94866.25;5113513;28;20125;-72
2020/12/07 11:49:20;;;;;;;27.58;2.70;;;;;;;6.91;60.24;94869.53;5113141;27;20161;-72
2020/12/07 11:51:46;;;;;;;33.90;2.80;;;;;;;6.91;59.53;94874.97;5113403;28;20047;-72
2020/12/07 11:54:12;;;;;;;33.30;2.67;;;;;;;6.85;60.42;94879.00;5113471;27;20063;-72
2020/12/07 11:56:39;;;;;;;22.02;2.22;;;;;;;6.98;61.87;94886.03;5113449;27;20062;-72